Byron, Nebraska
Current Conditions -  °F | °C
As of 10:35 PM on Saturday 22 Nov 2014 (Local Time) from KHJH Reporting Station
Overcast Overcast  
Wind Chill: 57°   Ceiling: 2200
Heat Index: 57°   Visibility: 10mi
Dew Point: 51°   Wind: 8mph
Humidity: 79%   Direction: 220°SW
Pressure: 29.57"   Gusts: NA
Location:  40°N, 97.77°W
Report Text: KHJH 230435Z AUTO 22007KT 10SM OVC022 14/11 A2957 RMK AO2 T01400105
Loading
Personal Weather Stations






























Interactive Weather Map New forecast layout! Learn more

10-Day Weather Forecast

Advertisements
Track Severe Weather on mobile